createdAt,value
2023-04-02T00:02:39.821Z,11.38
2023-04-02T00:05:51.651Z,11.41
2023-04-02T00:08:43.970Z,11.43
2023-04-02T00:11:38.630Z,11.44
2023-04-02T00:14:25.134Z,11.43
2023-04-02T00:17:07.277Z,11.42
2023-04-02T00:19:54.223Z,11.42
2023-04-02T00:22:36.566Z,11.42
2023-04-02T00:25:21.444Z,11.43
2023-04-02T00:28:05.921Z,11.42
2023-04-02T00:30:45.281Z,11.42
2023-04-02T00:33:28.218Z,11.43
2023-04-02T00:36:07.781Z,11.42
2023-04-02T00:38:48.909Z,11.42
2023-04-02T00:41:32.874Z,11.42
2023-04-02T00:44:23.182Z,11.43
2023-04-02T00:47:05.501Z,11.43
2023-04-02T00:49:47.374Z,11.44
2023-04-02T00:52:32.758Z,11.45
2023-04-02T00:55:16.856Z,11.46
2023-04-02T00:57:57.729Z,11.45
2023-04-02T01:00:43.933Z,11.43
2023-04-02T01:03:40.762Z,11.43
2023-04-02T01:06:25.219Z,11.42
2023-04-02T01:09:19.731Z,11.42
2023-04-02T01:12:22.722Z,11.41
2023-04-02T01:15:15.686Z,11.37
2023-04-02T01:18:41.437Z,11.31
2023-04-02T01:21:45.742Z,11.26
2023-04-02T01:24:27.717Z,11.24
2023-04-02T01:27:11.249Z,11.21
2023-04-02T01:30:01.428Z,11.19
2023-04-02T01:32:42.345Z,11.17
2023-04-02T01:35:21.762Z,11.16
2023-04-02T01:38:11.668Z,11.14
2023-04-02T01:41:01.885Z,11.14
2023-04-02T01:43:50.331Z,11.13
2023-04-02T01:46:39.834Z,11.13
2023-04-02T01:49:22.549Z,11.13
2023-04-02T01:52:03.450Z,11.13
2023-04-02T01:54:44.512Z,11.13
2023-04-02T01:57:24.275Z,11.14
2023-04-02T02:00:08.776Z,11.14
2023-04-02T02:02:56.946Z,11.15
2023-04-02T02:05:37.409Z,11.16
2023-04-02T02:08:34.259Z,11.16
2023-04-02T02:11:15.919Z,11.17
2023-04-02T02:14:18.139Z,11.17
2023-04-02T02:17:03.192Z,11.18
2023-04-02T02:19:53.239Z,11.19
2023-04-02T02:22:37.353Z,11.19
2023-04-02T02:25:22.029Z,11.18
2023-04-02T02:28:09.793Z,11.15
2023-04-02T02:30:54.427Z,11.14
2023-04-02T02:33:38.121Z,11.13
2023-04-02T02:36:30.678Z,11.12
2023-04-02T02:39:20.644Z,11.12
2023-04-02T02:42:05.135Z,11.11
2023-04-02T02:44:50.998Z,11.11
2023-04-02T02:47:35.467Z,11.10
2023-04-02T02:50:23.998Z,11.10
2023-04-02T02:53:24.986Z,11.11
2023-04-02T02:56:08.976Z,11.11
2023-04-02T02:58:48.737Z,11.11
2023-04-02T03:01:28.896Z,11.11
2023-04-02T03:04:08.845Z,11.10
2023-04-02T03:06:51.434Z,11.08
2023-04-02T03:09:44.249Z,11.06
2023-04-02T03:12:39.994Z,11.04
2023-04-02T03:15:28.845Z,11.03
2023-04-02T03:18:11.024Z,11.03
2023-04-02T03:20:56.844Z,11.04
2023-04-02T03:23:42.808Z,11.03
2023-04-02T03:26:34.633Z,11.01
2023-04-02T03:29:24.001Z,10.99
2023-04-02T03:32:11.380Z,10.95
2023-04-02T03:34:57.508Z,10.93
2023-04-02T03:37:43.900Z,10.91
2023-04-02T03:40:29.615Z,10.90
2023-04-02T03:43:29.125Z,10.89
2023-04-02T03:46:23.569Z,10.88
2023-04-02T03:49:08.443Z,10.86
2023-04-02T03:51:57.880Z,10.85
2023-04-02T03:54:38.376Z,10.86
2023-04-02T03:57:32.825Z,10.87
2023-04-02T04:00:27.234Z,10.87
2023-04-02T04:03:17.760Z,10.86
2023-04-02T04:06:03.061Z,10.84
2023-04-02T04:08:51.553Z,10.84
2023-04-02T04:11:37.878Z,10.82
2023-04-02T04:14:24.147Z,10.78
2023-04-02T04:17:25.093Z,10.76
2023-04-02T04:20:13.558Z,10.72
2023-04-02T04:22:57.047Z,10.68
2023-04-02T04:25:41.310Z,10.66
2023-04-02T04:28:31.356Z,10.65
2023-04-02T04:31:25.698Z,10.65
2023-04-02T04:34:20.595Z,10.65
2023-04-02T04:37:08.881Z,10.66
2023-04-02T04:39:52.892Z,10.69
2023-04-02T04:42:37.947Z,10.71
2023-04-02T04:45:31.721Z,10.74
2023-04-02T04:48:15.580Z,10.78
2023-04-02T04:51:07.086Z,10.80
2023-04-02T04:53:55.205Z,10.82
2023-04-02T04:56:38.042Z,10.83
2023-04-02T04:59:25.862Z,10.85
2023-04-02T05:02:12.831Z,10.86
2023-04-02T05:04:58.027Z,10.87
2023-04-02T05:07:52.255Z,10.88
2023-04-02T05:10:40.449Z,10.88
2023-04-02T05:13:28.649Z,10.90
2023-04-02T05:16:18.992Z,10.91
2023-04-02T05:19:09.257Z,10.92
2023-04-02T05:21:56.902Z,10.93
2023-04-02T05:25:08.928Z,10.93
2023-04-02T05:27:55.628Z,10.94
2023-04-02T05:30:53.906Z,10.95
2023-04-02T05:33:36.111Z,10.97
2023-04-02T05:36:19.084Z,10.99
2023-04-02T05:39:00.868Z,11.01
2023-04-02T05:41:49.344Z,11.01
2023-04-02T05:44:33.498Z,11.02
2023-04-02T05:47:20.049Z,11.04
2023-04-02T05:50:08.785Z,11.05
2023-04-02T05:52:54.596Z,11.07
2023-04-02T05:55:50.574Z,11.08
2023-04-02T05:58:45.539Z,11.09
2023-04-02T06:01:46.760Z,11.08
2023-04-02T06:04:34.075Z,11.10
2023-04-02T06:07:18.945Z,11.12
2023-04-02T06:10:04.533Z,11.13
2023-04-02T06:12:50.534Z,11.15
2023-04-02T06:15:35.106Z,11.17
2023-04-02T06:18:22.598Z,11.21
2023-04-02T06:21:02.428Z,11.24
2023-04-02T06:23:49.560Z,11.28
2023-04-02T06:26:34.950Z,11.31
2023-04-02T06:29:23.180Z,11.34
2023-04-02T06:32:09.605Z,11.36
2023-04-02T06:34:50.229Z,11.38
2023-04-02T06:37:37.473Z,11.40
2023-04-02T06:40:39.573Z,11.43
2023-04-02T06:43:34.361Z,11.46
2023-04-02T06:46:21.552Z,11.49
2023-04-02T06:49:14.128Z,11.53
2023-04-02T06:51:58.068Z,11.57
2023-04-02T06:54:37.644Z,11.61
2023-04-02T06:57:20.598Z,11.65
2023-04-02T07:00:00.100Z,11.67
2023-04-02T07:02:44.761Z,11.70
2023-04-02T07:05:29.407Z,11.73
2023-04-02T07:08:09.137Z,11.76
2023-04-02T07:10:48.635Z,11.79
2023-04-02T08:06:08.403Z,10.55
2023-04-02T08:08:48.040Z,10.48
2023-04-02T08:17:03.133Z,10.22
2023-04-02T08:19:54.259Z,10.17
2023-04-02T08:22:34.608Z,10.13
2023-04-02T08:25:15.203Z,10.09
2023-04-02T08:27:59.602Z,10.04
2023-04-02T08:30:38.948Z,10.00
2023-04-02T08:33:19.233Z,9.96
2023-04-02T08:35:58.676Z,9.92
2023-04-02T08:38:37.971Z,9.88
2023-04-02T08:41:29.464Z,9.86
2023-04-02T08:44:29.046Z,9.84
2023-04-02T08:47:12.543Z,9.81
2023-04-02T08:50:02.185Z,9.80
2023-04-02T08:52:45.509Z,9.80
2023-04-02T08:55:34.016Z,9.81
2023-04-02T08:58:28.472Z,9.82
2023-04-02T09:01:21.048Z,9.83
2023-04-02T09:04:05.895Z,9.84
2023-04-02T09:06:45.242Z,9.85
2023-04-02T09:09:27.157Z,9.86
2023-04-02T09:12:10.130Z,9.86
2023-04-02T09:14:54.086Z,9.88
2023-04-02T09:17:53.041Z,9.87
2023-04-02T09:20:34.450Z,9.89
2023-04-02T09:23:22.160Z,9.89
2023-04-02T09:26:04.702Z,9.88
2023-04-02T09:28:46.037Z,9.89
2023-04-02T09:31:29.948Z,9.90
2023-04-02T09:34:35.541Z,9.92
2023-04-02T09:37:20.711Z,9.96
2023-04-02T09:40:23.593Z,10.01
2023-04-02T09:43:18.174Z,10.04
2023-04-02T09:46:06.957Z,10.07
2023-04-02T09:48:54.499Z,10.15
2023-04-02T09:51:40.921Z,10.25
2023-04-02T09:54:24.252Z,10.33
2023-04-02T09:57:08.610Z,10.42
2023-04-02T09:59:48.008Z,10.48
2023-04-02T10:02:35.828Z,10.52
2023-04-02T10:05:39.827Z,10.53
2023-04-02T10:08:34.478Z,10.51
2023-04-02T10:11:21.586Z,10.50
2023-04-02T10:14:06.134Z,10.48
2023-04-02T10:16:51.283Z,10.42
2023-04-02T10:19:42.340Z,10.36
2023-04-02T10:22:25.762Z,10.30
2023-04-02T10:31:14.338Z,10.14
2023-04-02T10:33:59.043Z,10.16
2023-04-02T10:37:00.128Z,10.17
2023-04-02T10:39:47.286Z,10.18
2023-04-02T10:42:41.635Z,10.19
2023-04-02T10:45:36.859Z,10.21
2023-04-02T10:48:27.893Z,10.30
2023-04-02T10:51:11.983Z,10.40
2023-04-02T10:54:05.546Z,10.50
2023-04-02T10:56:51.155Z,10.59
2023-04-02T10:59:41.534Z,10.71
2023-04-02T11:02:37.782Z,10.76
2023-04-02T11:05:28.408Z,10.73
2023-04-02T11:08:13.709Z,10.71
2023-04-02T11:10:58.690Z,10.70
2023-04-02T11:13:44.448Z,10.65
2023-04-02T11:16:29.672Z,10.60
2023-04-02T11:19:33.260Z,10.55
2023-04-02T11:22:22.739Z,10.51
2023-04-02T11:25:04.436Z,10.46
2023-04-02T11:27:44.252Z,10.43
2023-04-02T11:30:31.952Z,10.39
2023-04-02T11:33:45.579Z,10.32
2023-04-02T11:36:57.014Z,10.25
2023-04-02T11:40:02.775Z,10.20
2023-04-02T11:42:43.611Z,10.18
2023-04-02T11:45:54.774Z,10.18
2023-04-02T11:48:42.077Z,10.17
2023-04-02T11:52:10.943Z,10.16
2023-04-02T11:54:51.858Z,10.15
2023-04-02T11:57:58.832Z,10.15
2023-04-02T12:01:19.489Z,10.11
2023-04-02T12:04:24.583Z,10.07
2023-04-02T12:07:27.864Z,10.05
2023-04-02T12:10:15.502Z,10.06
2023-04-02T12:12:55.410Z,10.09
2023-04-02T12:15:50.044Z,10.12
2023-04-02T12:18:31.680Z,10.16
2023-04-02T12:21:23.404Z,10.21
2023-04-02T12:24:06.530Z,10.25
2023-04-02T12:26:47.802Z,10.32
2023-04-02T12:29:32.070Z,10.35
2023-04-02T12:32:11.478Z,10.36
2023-04-02T12:34:53.659Z,10.35
2023-04-02T12:37:38.405Z,10.31
2023-04-02T12:40:25.601Z,10.29
2023-04-02T12:43:07.353Z,10.27
2023-04-02T12:45:46.740Z,10.24
2023-04-02T12:48:26.607Z,10.20
2023-04-02T12:51:07.681Z,10.16
2023-04-02T12:53:58.707Z,10.11
2023-04-02T12:56:38.294Z,10.07
2023-04-02T12:59:37.141Z,10.06
2023-04-02T13:02:27.028Z,10.07
2023-04-02T13:05:08.553Z,10.08
2023-04-02T13:07:54.256Z,10.08
2023-04-02T13:10:39.216Z,10.05
2023-04-02T13:13:24.415Z,10.02
2023-04-02T13:16:31.677Z,9.98
2023-04-02T13:19:32.956Z,9.88
2023-04-02T13:22:38.059Z,9.82
2023-04-02T13:25:17.329Z,9.77
2023-04-02T13:28:01.835Z,9.72
2023-04-02T13:30:41.108Z,9.70
2023-04-02T13:33:21.687Z,9.67
2023-04-02T13:36:01.155Z,9.65
2023-04-02T13:38:40.442Z,9.64
2023-04-02T13:41:28.954Z,9.62
2023-04-02T13:44:13.420Z,9.61
2023-04-02T13:46:53.143Z,9.59
2023-04-02T13:49:34.317Z,9.59
2023-04-02T13:52:21.703Z,9.55
2023-04-02T13:55:05.470Z,9.52
2023-04-02T13:57:44.729Z,9.48
2023-04-02T14:00:30.514Z,9.47
2023-04-02T14:03:15.590Z,9.46
2023-04-02T14:06:05.142Z,9.47
2023-04-02T14:08:59.436Z,9.47
2023-04-02T14:11:55.612Z,9.48
2023-04-02T14:14:54.159Z,9.46
2023-04-02T14:17:53.890Z,9.40
2023-04-02T14:20:51.444Z,9.38
2023-04-02T14:23:50.551Z,9.35
2023-04-02T14:26:40.785Z,9.31
2023-04-02T14:29:30.485Z,9.27
2023-04-02T14:32:16.088Z,9.26
2023-04-02T14:35:10.649Z,9.18
2023-04-02T14:37:59.992Z,9.12
2023-04-02T14:40:47.554Z,9.07
2023-04-02T14:43:32.631Z,9.05
2023-04-02T14:46:13.872Z,9.05
2023-04-02T14:49:00.252Z,9.04
2023-04-02T14:51:52.969Z,9.04
2023-04-02T14:54:40.664Z,9.02
2023-04-02T14:57:27.658Z,9.00
2023-04-02T15:00:14.604Z,8.98
2023-04-02T15:02:58.127Z,8.95
2023-04-02T15:05:48.211Z,8.93
2023-04-02T15:08:37.609Z,8.91
2023-04-02T15:11:22.691Z,8.91
2023-04-02T15:14:09.281Z,8.89
2023-04-02T15:16:48.575Z,8.88
2023-04-02T15:19:27.867Z,8.86
2023-04-02T15:22:19.190Z,8.84
2023-04-02T15:25:15.508Z,8.82
2023-04-02T15:28:16.062Z,8.79
2023-04-02T15:31:03.537Z,8.78
2023-04-02T15:33:52.295Z,8.77
2023-04-02T15:36:52.054Z,8.73
2023-04-02T15:40:06.579Z,8.70
2023-04-02T15:43:02.055Z,8.70
2023-04-02T15:45:59.278Z,8.65
2023-04-02T15:49:14.866Z,8.61
2023-04-02T15:52:12.398Z,8.55
2023-04-02T15:55:07.277Z,8.49
2023-04-02T15:58:16.716Z,8.39
2023-04-02T16:01:07.383Z,8.32
2023-04-02T16:04:06.916Z,8.27
2023-04-02T16:07:03.216Z,8.22
2023-04-02T16:09:55.602Z,8.17
2023-04-02T16:12:37.894Z,8.12
2023-04-02T16:15:29.821Z,8.05
2023-04-02T16:18:16.156Z,7.99
2023-04-02T16:20:59.716Z,7.92
2023-04-02T16:23:42.584Z,7.87
2023-04-02T16:26:49.652Z,7.85
2023-04-02T16:30:02.973Z,7.81
2023-04-02T16:33:07.070Z,7.77
2023-04-02T16:35:55.376Z,7.74
2023-04-02T16:38:53.463Z,7.72
2023-04-02T16:41:59.625Z,7.71
2023-04-02T16:44:55.913Z,7.69
2023-04-02T16:48:07.260Z,7.69
2023-04-02T16:51:00.355Z,7.67
2023-04-02T16:54:01.129Z,7.61
2023-04-02T16:56:57.251Z,7.58
2023-04-02T16:59:48.256Z,7.56
2023-04-02T17:02:43.486Z,7.53
2023-04-02T17:05:38.401Z,7.51
2023-04-02T17:08:28.474Z,7.46
2023-04-02T17:11:12.774Z,7.41
2023-04-02T17:14:06.923Z,7.38
2023-04-02T17:16:51.499Z,7.36
2023-04-02T17:19:34.487Z,7.35
2023-04-02T17:22:24.711Z,7.36
2023-04-02T17:25:06.209Z,7.37
2023-04-02T17:27:50.638Z,7.37
2023-04-02T17:30:45.419Z,7.36
2023-04-02T17:33:28.627Z,7.33
2023-04-02T17:36:36.291Z,7.29
2023-04-02T17:39:33.767Z,7.21
2023-04-02T17:42:23.534Z,7.10
2023-04-02T17:45:18.704Z,7.03
2023-04-02T17:48:07.156Z,6.93
2023-04-02T17:50:57.568Z,6.85
2023-04-02T17:53:50.483Z,6.77
2023-04-02T17:56:54.657Z,6.73
2023-04-02T17:59:53.400Z,6.70
2023-04-02T18:02:51.033Z,6.70
2023-04-02T18:05:38.278Z,6.70
2023-04-02T18:08:29.065Z,6.73
2023-04-02T18:11:17.620Z,6.75
2023-04-02T18:14:08.606Z,6.76
2023-04-02T18:17:01.730Z,6.79
2023-04-02T18:19:50.618Z,6.83
2023-04-02T18:22:40.598Z,6.85
2023-04-02T18:25:35.301Z,6.87
2023-04-02T18:28:33.203Z,6.84
2023-04-02T18:31:31.245Z,6.82
2023-04-02T18:34:28.429Z,6.77
2023-04-02T18:37:23.198Z,6.73
2023-04-02T18:40:24.848Z,6.67
2023-04-02T18:43:14.029Z,6.63
2023-04-02T18:46:06.281Z,6.61
2023-04-02T18:49:02.696Z,6.59
2023-04-02T18:51:46.527Z,6.58
2023-04-02T18:54:33.366Z,6.56
2023-04-02T18:57:23.146Z,6.53
2023-04-02T19:00:09.334Z,6.51
2023-04-02T19:02:53.711Z,6.49
2023-04-02T19:05:47.066Z,6.46
2023-04-02T19:08:35.030Z,6.43
2023-04-02T19:11:19.960Z,6.42
2023-04-02T19:13:59.213Z,6.42
2023-04-02T19:17:07.336Z,6.41
2023-04-02T19:19:54.797Z,6.40
2023-04-02T19:22:52.513Z,6.40
2023-04-02T19:25:52.044Z,6.41
2023-04-02T19:28:39.920Z,6.43
2023-04-02T19:31:31.999Z,6.45
2023-04-02T19:34:27.643Z,6.47
2023-04-02T19:37:18.272Z,6.49
2023-04-02T19:40:25.905Z,6.52
2023-04-02T19:43:05.484Z,6.53
2023-04-02T19:45:48.096Z,6.55
2023-04-02T19:48:31.984Z,6.57
2023-04-02T19:51:11.367Z,6.59
2023-04-02T19:53:50.674Z,6.61
2023-04-02T19:56:35.743Z,6.61
2023-04-02T19:59:18.037Z,6.62
2023-04-02T20:01:59.885Z,6.62
2023-04-02T20:04:40.455Z,6.61
2023-04-02T20:07:19.736Z,6.59
2023-04-02T20:09:59.107Z,6.58
2023-04-02T20:12:43.613Z,6.56
2023-04-02T20:15:23.017Z,6.57
2023-04-02T20:18:02.414Z,6.58
2023-04-02T20:20:41.696Z,6.59
2023-04-02T20:23:24.458Z,6.59
2023-04-02T20:26:04.821Z,6.58
2023-04-02T20:28:49.274Z,6.59
2023-04-02T20:31:28.762Z,6.59
2023-04-02T20:34:10.588Z,6.59
2023-04-02T20:36:50.016Z,6.59
2023-04-02T20:39:29.989Z,6.59
2023-04-02T20:42:09.259Z,6.59
2023-04-02T20:44:53.613Z,6.58
2023-04-02T20:47:32.916Z,6.58
2023-04-02T20:50:13.438Z,6.58
2023-04-02T20:52:52.731Z,6.58
2023-04-02T20:55:32.721Z,6.59
2023-04-02T20:58:11.984Z,6.58
2023-04-02T21:00:56.332Z,6.57
2023-04-02T21:03:35.730Z,6.57
2023-04-02T21:06:20.066Z,6.57
2023-04-02T21:09:00.117Z,6.56
2023-04-02T21:11:39.477Z,6.56
2023-04-02T21:14:19.017Z,6.54
2023-04-02T21:17:03.369Z,6.53
2023-04-02T21:19:43.182Z,6.49
2023-04-02T21:22:22.492Z,6.46
2023-04-02T21:25:01.784Z,6.46
2023-04-02T21:27:41.042Z,6.47
2023-04-02T21:30:20.785Z,6.48
2023-04-02T21:33:05.246Z,6.50
2023-04-02T21:35:44.622Z,6.52
2023-04-02T21:38:23.902Z,6.52
2023-04-02T21:41:03.184Z,6.53
2023-04-02T21:43:42.459Z,6.53
2023-04-02T21:46:22.871Z,6.54
2023-04-02T21:49:09.152Z,6.55
2023-04-02T21:51:50.290Z,6.56
2023-04-02T21:54:30.769Z,6.55
2023-04-02T21:57:10.102Z,6.55
2023-04-02T21:59:49.500Z,6.54
2023-04-02T22:02:28.785Z,6.52
2023-04-02T22:05:14.512Z,6.51
2023-04-02T22:07:53.858Z,6.49
2023-04-02T22:10:33.301Z,6.47
2023-04-02T22:13:12.600Z,6.44
2023-04-02T22:15:52.257Z,6.40
2023-04-02T22:18:31.562Z,6.37
2023-04-02T22:21:16.672Z,6.33
2023-04-02T22:23:56.546Z,6.29
2023-04-02T22:26:36.883Z,6.27
2023-04-02T22:29:16.275Z,6.25
2023-04-02T22:31:55.586Z,6.23
2023-04-02T22:34:35.330Z,6.22
2023-04-02T22:37:19.698Z,6.21
2023-04-02T22:39:58.979Z,6.20
2023-04-02T22:42:40.458Z,6.20
2023-04-02T22:45:22.195Z,6.19
2023-04-02T22:48:01.718Z,6.18
2023-04-02T22:50:41.075Z,6.17
2023-04-02T22:53:25.947Z,6.16
2023-04-02T22:56:09.542Z,6.15
2023-04-02T22:58:49.531Z,6.13
2023-04-02T23:01:31.488Z,6.11
2023-04-02T23:04:11.281Z,6.08
2023-04-02T23:06:50.663Z,6.05
2023-04-02T23:09:35.069Z,6.02
2023-04-02T23:12:14.545Z,5.99
2023-04-02T23:14:53.977Z,5.95
2023-04-02T23:17:33.327Z,5.91
2023-04-02T23:20:14.528Z,5.87
2023-04-02T23:22:53.855Z,5.83
2023-04-02T23:25:39.500Z,5.79
2023-04-02T23:28:20.918Z,5.73
2023-04-02T23:31:00.680Z,5.66
2023-04-02T23:33:40.154Z,5.60
2023-04-02T23:36:24.174Z,5.55
2023-04-02T23:39:06.727Z,5.48
2023-04-02T23:41:51.149Z,5.42
2023-04-02T23:44:30.447Z,5.36
2023-04-02T23:47:09.893Z,5.29
2023-04-02T23:49:49.236Z,5.24
2023-04-02T23:52:28.544Z,5.19
2023-04-02T23:55:07.866Z,5.13
2023-04-02T23:57:52.654Z,5.08
